createdAt,value
2018-01-20T00:02:10.561Z,100338.78
2018-01-20T00:04:38.110Z,100336.28
2018-01-20T00:07:05.612Z,100334.67
2018-01-20T00:09:45.046Z,100330.91
2018-01-20T00:12:12.585Z,100332.01
2018-01-20T00:14:40.124Z,100327.11
2018-01-20T00:17:13.284Z,100327.83
2018-01-20T00:19:40.812Z,100319.05
2018-01-20T00:22:08.353Z,100317.89
2018-01-20T00:24:41.486Z,100316.69
2018-01-20T00:27:08.991Z,100319.98
2018-01-20T00:29:36.532Z,100312.89
2018-01-20T00:32:04.097Z,100314.67
2018-01-20T00:34:31.660Z,100316.00
2018-01-20T00:36:59.189Z,100314.09
2018-01-20T00:39:26.913Z,100315.17
2018-01-20T00:41:54.428Z,100318.63
2018-01-20T00:44:21.955Z,100320.10
2018-01-20T00:46:49.489Z,100322.13
2018-01-20T00:49:16.991Z,100325.37
2018-01-20T00:51:44.574Z,100318.14
2018-01-20T00:54:12.082Z,100313.41
2018-01-20T00:56:39.609Z,100320.39
2018-01-20T00:59:07.161Z,100319.08
2018-01-20T01:01:34.672Z,100316.15
2018-01-20T01:04:02.247Z,100316.79
2018-01-20T01:06:29.780Z,100323.28
2018-01-20T01:08:57.286Z,100321.74
2018-01-20T01:11:24.812Z,100317.79
2018-01-20T01:13:52.360Z,100319.25
2018-01-20T01:16:19.912Z,100331.82
2018-01-20T01:18:47.469Z,100330.34
2018-01-20T01:21:14.979Z,100336.26
2018-01-20T01:23:42.508Z,100334.10
2018-01-20T01:26:10.057Z,100332.67
2018-01-20T01:28:37.592Z,100335.31
2018-01-20T01:31:05.141Z,100328.47
2018-01-20T01:33:32.799Z,100330.95
2018-01-20T01:36:00.325Z,100326.67
2018-01-20T01:38:27.872Z,100325.17
2018-01-20T01:40:55.429Z,100324.29
2018-01-20T01:43:22.945Z,100319.44
2018-01-20T01:45:50.471Z,100330.36
2018-01-20T01:48:18.005Z,100319.58
2018-01-20T01:50:45.545Z,100322.15
2018-01-20T01:53:13.079Z,100322.00
2018-01-20T01:55:40.650Z,100319.72
2018-01-20T01:58:08.158Z,100322.11
2018-01-20T02:00:35.705Z,100328.12
2018-01-20T02:03:03.257Z,100325.59
2018-01-20T02:05:30.842Z,100321.69
2018-01-20T02:07:58.361Z,100325.28
2018-01-20T02:10:25.881Z,100328.27
2018-01-20T02:12:53.628Z,100327.44
2018-01-20T02:15:21.144Z,100325.17
2018-01-20T02:17:48.740Z,100320.43
2018-01-20T02:20:16.272Z,100315.50
2018-01-20T02:22:43.796Z,100311.14
2018-01-20T02:25:11.344Z,100309.05
2018-01-20T02:27:38.887Z,100316.94
2018-01-20T02:30:06.474Z,100309.44
2018-01-20T02:32:33.990Z,100315.87
2018-01-20T02:35:06.449Z,100312.13
2018-01-20T02:37:33.989Z,100311.31
2018-01-20T02:40:01.557Z,100295.28
2018-01-20T02:42:29.277Z,100298.78
2018-01-20T02:44:56.792Z,100294.26
2018-01-20T02:47:24.333Z,100285.70
2018-01-20T02:49:51.869Z,100294.34
2018-01-20T02:52:19.393Z,100287.14
2018-01-20T02:54:46.930Z,100283.57
2018-01-20T02:57:14.473Z,100281.00
2018-01-20T02:59:42.018Z,100285.14
2018-01-20T03:02:09.575Z,100282.88
2018-01-20T03:04:37.100Z,100284.83
2018-01-20T03:07:04.642Z,100285.92
2018-01-20T03:09:32.213Z,100280.98
2018-01-20T03:11:59.765Z,100281.81
2018-01-20T03:14:27.301Z,100280.31
2018-01-20T03:16:54.813Z,100280.86
2018-01-20T03:19:22.362Z,100279.56
2018-01-20T03:21:49.874Z,100279.73
2018-01-20T03:24:17.417Z,100276.86
2018-01-20T03:26:44.929Z,100278.46
2018-01-20T03:29:12.482Z,100275.63
2018-01-20T03:31:40.266Z,100267.13
2018-01-20T03:34:07.789Z,100272.58
2018-01-20T03:36:35.301Z,100267.34
2018-01-20T03:39:02.832Z,100270.93
2018-01-20T03:41:30.733Z,100272.84
2018-01-20T03:43:58.269Z,100270.34
2018-01-20T03:46:25.820Z,100262.05
2018-01-20T03:48:53.348Z,100267.19
2018-01-20T03:51:20.857Z,100269.38
2018-01-20T03:53:48.377Z,100265.91
2018-01-20T03:56:15.901Z,100261.91
2018-01-20T03:58:43.433Z,100272.14
2018-01-20T04:01:10.951Z,100266.29
2018-01-20T04:03:38.485Z,100264.17
2018-01-20T04:06:06.374Z,100269.11
2018-01-20T04:08:33.925Z,100269.45
2018-01-20T04:11:01.465Z,100270.45
2018-01-20T04:13:29.000Z,100269.22
2018-01-20T04:15:56.552Z,100269.59
2018-01-20T04:18:24.306Z,100272.98
2018-01-20T04:20:51.813Z,100269.22
2018-01-20T04:23:19.336Z,100271.89
2018-01-20T04:25:46.865Z,100266.92
2018-01-20T04:28:14.397Z,100265.17
2018-01-20T04:30:41.938Z,100265.17
2018-01-20T04:33:09.509Z,100261.48
2018-01-20T04:35:37.041Z,100267.48
2018-01-20T04:38:04.589Z,100264.80
2018-01-20T04:40:32.133Z,100266.79
2018-01-20T04:42:59.657Z,100260.28
2018-01-20T04:45:27.193Z,100258.44
2018-01-20T04:47:54.706Z,100258.36
2018-01-20T04:50:22.251Z,100253.05
2018-01-20T04:52:49.791Z,100256.14
2018-01-20T04:55:17.299Z,100250.48
2018-01-20T04:57:44.817Z,100252.71
2018-01-20T05:00:12.364Z,100253.87
2018-01-20T05:02:39.916Z,100250.41
2018-01-20T05:05:08.310Z,100252.78
2018-01-20T05:07:35.842Z,100248.84
2018-01-20T05:10:03.369Z,100255.62
2018-01-20T05:12:30.953Z,100256.44
2018-01-20T05:14:58.492Z,100255.92
2018-01-20T05:17:26.033Z,100255.90
2018-01-20T05:19:53.592Z,100257.58
2018-01-20T05:22:21.109Z,100251.34
2018-01-20T05:24:48.637Z,100254.42
2018-01-20T05:27:16.181Z,100250.70
2018-01-20T05:29:43.711Z,100249.56
2018-01-20T05:32:11.249Z,100247.82
2018-01-20T05:34:39.022Z,100245.36
2018-01-20T05:37:06.557Z,100246.76
2018-01-20T05:39:34.073Z,100244.60
2018-01-20T05:42:01.641Z,100240.02
2018-01-20T05:44:29.191Z,100241.97
2018-01-20T05:46:56.725Z,100243.16
2018-01-20T05:49:24.297Z,100239.84
2018-01-20T05:51:51.829Z,100241.59
2018-01-20T05:54:19.368Z,100240.25
2018-01-20T05:56:46.913Z,100237.61
2018-01-20T05:59:14.429Z,100240.63
2018-01-20T06:01:41.938Z,100236.72
2018-01-20T06:04:09.493Z,100244.95
2018-01-20T06:06:37.003Z,100238.06
2018-01-20T06:09:04.565Z,100238.27
2018-01-20T06:11:32.144Z,100243.02
2018-01-20T06:13:59.690Z,100246.14
2018-01-20T06:16:27.222Z,100248.54
2018-01-20T06:18:54.973Z,100246.01
2018-01-20T06:21:22.489Z,100247.27
2018-01-20T06:23:50.009Z,100245.33
2018-01-20T06:26:17.566Z,100238.92
2018-01-20T06:28:45.125Z,100241.42
2018-01-20T06:31:12.659Z,100236.45
2018-01-20T06:33:40.177Z,100237.55
2018-01-20T06:36:07.698Z,100241.69
2018-01-20T06:38:35.232Z,100233.67
2018-01-20T06:41:02.924Z,100234.73
2018-01-20T06:43:30.480Z,100235.15
2018-01-20T06:45:58.044Z,100232.65
2018-01-20T06:48:25.621Z,100236.80
2018-01-20T06:50:53.181Z,100237.34
2018-01-20T06:53:20.781Z,100232.38
2018-01-20T06:55:48.283Z,100237.30
2018-01-20T06:58:15.799Z,100239.70
2018-01-20T07:00:43.402Z,100241.34
2018-01-20T07:03:10.977Z,100237.72
2018-01-20T07:05:38.489Z,100243.61
2018-01-20T07:08:06.020Z,100239.09
2018-01-20T07:10:33.661Z,100249.59
2018-01-20T07:13:01.299Z,100246.34
2018-01-20T07:15:29.066Z,100242.95
2018-01-20T07:17:56.572Z,100243.84
2018-01-20T07:20:24.083Z,100250.05
2018-01-20T07:22:51.701Z,100244.95
2018-01-20T07:25:19.217Z,100249.33
2018-01-20T07:27:46.778Z,100247.16
2018-01-20T07:30:14.400Z,100248.88
2018-01-20T07:32:41.973Z,100245.97
2018-01-20T07:35:09.539Z,100249.16
2018-01-20T07:37:37.100Z,100255.05
2018-01-20T07:40:11.261Z,100256.38
2018-01-20T07:42:39.007Z,100253.71
2018-01-20T07:45:06.655Z,100252.69
2018-01-20T07:47:34.183Z,100248.75
2018-01-20T07:50:01.730Z,100248.54
2018-01-20T07:52:29.262Z,100256.66
2018-01-20T07:54:56.885Z,100255.84
2018-01-20T07:57:24.720Z,100260.98
2018-01-20T07:59:52.293Z,100256.42
2018-01-20T08:02:19.843Z,100253.34
2018-01-20T08:04:47.378Z,100250.70
2018-01-20T08:07:14.909Z,100250.98
2018-01-20T08:09:42.661Z,100249.61
2018-01-20T08:12:10.184Z,100248.54
2018-01-20T08:14:37.717Z,100249.19
2018-01-20T08:17:05.312Z,100252.52
2018-01-20T08:19:32.845Z,100244.13
2018-01-20T08:22:00.416Z,100245.19
2018-01-20T08:24:28.145Z,100248.88
2018-01-20T08:26:55.660Z,100244.88
2018-01-20T08:29:23.220Z,100246.25
2018-01-20T08:31:50.740Z,100246.52
2018-01-20T08:34:18.284Z,100242.30
2018-01-20T08:36:45.798Z,100247.78
2018-01-20T08:39:13.345Z,100238.73
2018-01-20T08:41:40.896Z,100246.06
2018-01-20T08:44:08.418Z,100244.31
2018-01-20T08:46:35.973Z,100243.52
2018-01-20T08:49:03.538Z,100248.03
2018-01-20T08:51:31.050Z,100248.03
2018-01-20T08:53:58.624Z,100251.02
2018-01-20T08:56:26.208Z,100246.02
2018-01-20T08:58:53.845Z,100252.36
2018-01-20T09:01:21.387Z,100253.68
2018-01-20T09:03:48.938Z,100253.19
2018-01-20T09:06:16.481Z,100251.70
2018-01-20T09:08:44.918Z,100250.81
2018-01-20T09:11:12.449Z,100250.95
2018-01-20T09:13:39.958Z,100248.04
2018-01-20T09:16:07.568Z,100250.99
2018-01-20T09:18:35.120Z,100249.36
2018-01-20T09:21:02.660Z,100247.11
2018-01-20T09:23:30.204Z,100247.22
2018-01-20T09:25:57.796Z,100246.98
2018-01-20T09:28:25.333Z,100246.32
2018-01-20T09:30:52.927Z,100245.92
2018-01-20T09:33:20.442Z,100251.23
2018-01-20T09:35:47.949Z,100252.63
2018-01-20T09:38:15.497Z,100249.38
2018-01-20T09:40:43.040Z,100246.95
2018-01-20T09:43:10.693Z,100249.52
2018-01-20T09:45:38.219Z,100246.33
2018-01-20T09:48:05.740Z,100243.27
2018-01-20T09:50:33.444Z,100247.72
2018-01-20T09:53:00.963Z,100244.05
2018-01-20T09:55:28.511Z,100235.02
2018-01-20T09:57:56.065Z,100235.42
2018-01-20T10:00:23.623Z,100231.26
2018-01-20T10:02:51.199Z,100233.19
2018-01-20T10:05:18.714Z,100230.08
2018-01-20T10:07:46.246Z,100221.64
2018-01-20T10:10:13.801Z,100227.92
2018-01-20T10:12:41.324Z,100229.53
2018-01-20T10:15:08.845Z,100225.39
2018-01-20T10:17:36.568Z,100226.98
2018-01-20T10:20:04.090Z,100218.55
2018-01-20T10:22:31.593Z,100226.14
2018-01-20T10:24:59.349Z,100220.57
2018-01-20T10:27:26.882Z,100223.67
2018-01-20T10:29:56.291Z,100221.95
2018-01-20T10:32:23.869Z,100224.76
2018-01-20T10:34:51.730Z,100219.09
2018-01-20T10:37:19.253Z,100216.75
2018-01-20T10:39:46.790Z,100221.77
2018-01-20T10:42:14.316Z,100210.56
2018-01-20T10:44:41.869Z,100214.61
2018-01-20T10:47:09.399Z,100211.50
2018-01-20T10:49:36.935Z,100215.16
2018-01-20T10:52:04.527Z,100209.98
2018-01-20T10:54:32.836Z,100206.32
2018-01-20T10:57:00.375Z,100198.98
2018-01-20T10:59:27.937Z,100209.17
2018-01-20T11:01:55.486Z,100192.17
2018-01-20T11:04:23.061Z,100184.09
2018-01-20T11:06:50.619Z,100179.97
2018-01-20T11:09:18.171Z,100179.96
2018-01-20T11:11:45.690Z,100171.45
2018-01-20T11:14:13.248Z,100169.16
2018-01-20T11:16:40.819Z,100159.19
2018-01-20T11:19:08.354Z,100159.92
2018-01-20T11:21:35.897Z,100151.14
2018-01-20T11:24:03.468Z,100155.49
2018-01-20T11:26:31.049Z,100150.90
2018-01-20T11:28:58.586Z,100146.59
2018-01-20T11:31:26.143Z,100147.60
2018-01-20T11:33:53.718Z,100150.91
2018-01-20T11:36:21.254Z,100151.56
2018-01-20T11:38:48.773Z,100139.09
2018-01-20T11:41:16.330Z,100134.10
2018-01-20T11:43:43.890Z,100126.84
2018-01-20T11:46:11.433Z,100129.68
2018-01-20T11:48:38.981Z,100119.67
2018-01-20T11:51:06.525Z,100114.83
2018-01-20T11:53:34.051Z,100116.99
2018-01-20T11:56:01.589Z,100110.96
2018-01-20T11:58:29.132Z,100103.14
2018-01-20T12:00:56.673Z,100103.28
2018-01-20T12:03:24.197Z,100098.87
2018-01-20T12:05:51.844Z,100104.64
2018-01-20T12:08:19.386Z,100098.63
2018-01-20T12:10:46.905Z,100101.06
2018-01-20T12:13:14.437Z,100096.27
2018-01-20T12:15:41.970Z,100097.39
2018-01-20T12:18:09.512Z,100088.59
2018-01-20T12:20:37.209Z,100083.17
2018-01-20T12:23:04.731Z,100085.00
2018-01-20T12:25:32.254Z,100090.12
2018-01-20T12:27:59.787Z,100087.41
2018-01-20T12:30:27.361Z,100079.11
2018-01-20T12:32:54.922Z,100072.33
2018-01-20T12:35:22.441Z,100075.23
2018-01-20T12:37:49.976Z,100068.86
2018-01-20T12:40:17.522Z,100061.70
2018-01-20T12:42:45.065Z,100058.84
2018-01-20T12:45:12.602Z,100056.17
2018-01-20T12:47:40.129Z,100052.91
2018-01-20T12:50:07.656Z,100055.36
2018-01-20T12:52:35.209Z,100058.44
2018-01-20T12:55:02.793Z,100045.44
2018-01-20T12:57:30.371Z,100051.95
2018-01-20T12:59:57.890Z,100042.14
2018-01-20T13:02:25.425Z,100041.93
2018-01-20T13:04:53.005Z,100038.49
2018-01-20T13:07:20.523Z,100036.83
2018-01-20T13:09:48.033Z,100039.08
2018-01-20T13:12:15.756Z,100032.08
2018-01-20T13:14:43.333Z,100034.43
2018-01-20T13:17:10.891Z,100027.97
2018-01-20T13:19:38.456Z,100023.14
2018-01-20T13:22:05.987Z,100027.17
2018-01-20T13:24:33.517Z,100023.24
2018-01-20T13:27:01.045Z,100018.52
2018-01-20T13:29:28.589Z,100017.45
2018-01-20T13:31:56.165Z,100018.20
2018-01-20T13:34:23.691Z,100010.43
2018-01-20T13:36:51.213Z,100006.52
2018-01-20T13:39:18.770Z,100006.13
2018-01-20T13:41:46.312Z,100006.33
2018-01-20T13:44:13.834Z,100006.63
2018-01-20T13:46:41.448Z,100007.65
2018-01-20T13:49:08.985Z,100006.29
2018-01-20T13:51:36.503Z,100008.12
2018-01-20T13:54:04.061Z,100015.34
2018-01-20T13:56:31.569Z,100020.09
2018-01-20T13:58:59.113Z,100014.76
2018-01-20T14:01:26.910Z,100014.45
2018-01-20T14:03:54.465Z,100012.57
2018-01-20T14:06:21.969Z,100017.44
2018-01-20T14:08:49.513Z,100009.40
2018-01-20T14:11:17.035Z,100008.58
2018-01-20T14:13:44.549Z,100010.14
2018-01-20T14:16:12.109Z,100005.59
2018-01-20T14:18:39.673Z,100003.02
2018-01-20T14:21:07.210Z,99999.92
2018-01-20T14:23:34.744Z,100004.75
2018-01-20T14:26:02.321Z,100003.00
2018-01-20T14:28:30.026Z,99999.80
2018-01-20T14:30:57.588Z,99999.15
2018-01-20T14:33:25.682Z,99996.53
2018-01-20T14:35:56.159Z,99993.30
2018-01-20T14:38:23.935Z,99990.51
2018-01-20T14:40:51.506Z,99991.30
2018-01-20T14:43:19.050Z,99990.62
2018-01-20T14:45:46.593Z,99988.98
2018-01-20T14:48:14.153Z,99983.48
2018-01-20T14:50:41.733Z,99981.52
2018-01-20T14:53:09.260Z,99981.55
2018-01-20T14:55:36.825Z,99968.98
2018-01-20T14:58:04.395Z,99971.14
2018-01-20T15:00:32.052Z,99976.56
2018-01-20T15:02:59.597Z,99972.73
2018-01-20T15:05:27.118Z,99965.52
2018-01-20T15:07:54.617Z,99971.02
2018-01-20T15:10:22.164Z,99965.43
2018-01-20T15:12:49.712Z,99962.81
2018-01-20T15:15:17.241Z,99958.45
2018-01-20T15:17:44.856Z,99961.13
2018-01-20T15:20:12.385Z,99952.88
2018-01-20T15:22:39.950Z,99957.31
2018-01-20T15:25:08.096Z,99963.93
2018-01-20T15:27:35.911Z,99958.29
2018-01-20T15:30:03.424Z,99959.55
2018-01-20T15:32:30.926Z,99963.64
2018-01-20T15:34:58.583Z,99959.48
2018-01-20T15:37:26.081Z,99959.08
2018-01-20T15:39:53.610Z,99948.37
2018-01-20T15:42:21.214Z,99955.89
2018-01-20T15:44:48.742Z,99953.73
2018-01-20T15:47:16.279Z,99949.83
2018-01-20T15:49:43.789Z,99948.78
2018-01-20T15:52:11.312Z,99947.74
2018-01-20T15:54:38.952Z,99941.86
2018-01-20T15:57:06.473Z,99936.47
2018-01-20T15:59:34.028Z,99935.20
2018-01-20T16:02:01.536Z,99937.94
2018-01-20T16:04:29.068Z,99937.41
2018-01-20T16:06:56.659Z,99937.36
2018-01-20T16:09:24.203Z,99943.34
2018-01-20T16:11:51.785Z,99944.58
2018-01-20T16:14:19.326Z,99934.96
2018-01-20T16:16:46.884Z,99934.97
2018-01-20T16:19:14.392Z,99937.39
2018-01-20T16:21:41.919Z,99924.08
2018-01-20T16:24:09.568Z,99931.81
2018-01-20T16:26:37.073Z,99925.35
2018-01-20T16:29:04.576Z,99919.19
2018-01-20T16:31:32.136Z,99916.92
2018-01-20T16:33:59.699Z,99918.84
2018-01-20T16:36:27.780Z,99912.56
2018-01-20T16:38:55.290Z,99917.52
2018-01-20T16:41:22.976Z,99913.08
2018-01-20T16:43:50.496Z,99906.06
2018-01-20T16:46:18.011Z,99912.97
2018-01-20T16:48:45.556Z,99909.96
2018-01-20T16:51:13.112Z,99905.12
2018-01-20T16:53:40.627Z,99902.34
2018-01-20T16:56:08.182Z,99906.09
2018-01-20T16:58:35.774Z,99897.83
2018-01-20T17:01:03.287Z,99898.75
2018-01-20T17:03:30.818Z,99895.20
2018-01-20T17:05:58.330Z,99894.31
2018-01-20T17:08:26.897Z,99895.36
2018-01-20T17:10:54.422Z,99898.37
2018-01-20T17:13:21.980Z,99895.58
2018-01-20T17:15:49.528Z,99892.57
2018-01-20T17:18:17.082Z,99891.64
2018-01-20T17:20:44.632Z,99888.52
2018-01-20T17:23:12.227Z,99889.85
2018-01-20T17:25:39.789Z,99888.63
2018-01-20T17:28:07.444Z,99883.05
2018-01-20T17:30:34.949Z,99883.79
2018-01-20T17:33:02.458Z,99883.98
2018-01-20T17:35:30.102Z,99876.92
2018-01-20T17:37:57.641Z,99877.67
2018-01-20T17:40:25.195Z,99875.84
2018-01-20T17:42:52.733Z,99874.25
2018-01-20T17:45:20.261Z,99869.92
2018-01-20T17:47:47.797Z,99867.95
2018-01-20T17:50:15.354Z,99860.84
2018-01-20T17:52:42.876Z,99857.61
2018-01-20T17:55:10.415Z,99862.20
2018-01-20T17:57:37.950Z,99862.31
2018-01-20T18:00:05.452Z,99856.04
2018-01-20T18:02:33.152Z,99854.03
2018-01-20T18:05:00.726Z,99856.28
2018-01-20T18:07:28.232Z,99848.37
2018-01-20T18:09:55.732Z,99843.89
2018-01-20T18:12:23.287Z,99846.28
2018-01-20T18:14:50.841Z,99840.69
2018-01-20T18:17:18.442Z,99839.70
2018-01-20T18:19:45.996Z,99840.47
2018-01-20T18:22:13.733Z,99842.90
2018-01-20T18:24:41.303Z,99841.75
2018-01-20T18:27:08.949Z,99839.65
2018-01-20T18:29:36.510Z,99838.30
2018-01-20T18:32:04.036Z,99837.95
2018-01-20T18:34:31.718Z,99841.26
2018-01-20T18:36:59.239Z,99842.27
2018-01-20T18:39:26.768Z,99836.48
2018-01-20T18:41:54.358Z,99835.77
2018-01-20T18:44:21.916Z,99833.68
2018-01-20T18:46:49.425Z,99831.89
2018-01-20T18:49:17.219Z,99829.82
2018-01-20T18:51:44.746Z,99825.77
2018-01-20T18:54:12.261Z,99826.85
2018-01-20T18:56:39.908Z,99823.94
2018-01-20T18:59:07.436Z,99827.99
2018-01-20T19:01:34.986Z,99837.44
2018-01-20T19:04:02.520Z,99831.46
2018-01-20T19:06:30.221Z,99827.84
2018-01-20T19:08:57.721Z,99827.19
2018-01-20T19:11:25.224Z,99831.95
2018-01-20T19:13:52.776Z,99826.77
2018-01-20T19:16:20.288Z,99827.67
2018-01-20T19:18:47.797Z,99826.21
2018-01-20T19:21:15.344Z,99827.59
2018-01-20T19:23:42.863Z,99831.86
2018-01-20T19:26:10.398Z,99836.76
2018-01-20T19:28:38.150Z,99837.31
2018-01-20T19:31:05.689Z,99844.21
2018-01-20T19:33:33.217Z,99844.19
2018-01-20T19:36:00.818Z,99848.16
2018-01-20T19:38:28.391Z,99851.19
2018-01-20T19:40:55.900Z,99855.27
2018-01-20T19:43:23.482Z,99853.94
2018-01-20T19:45:50.984Z,99850.45
2018-01-20T19:48:18.613Z,99855.13
2018-01-20T19:50:46.171Z,99849.54
2018-01-20T19:53:13.700Z,99851.11
2018-01-20T19:55:41.297Z,99848.87
2018-01-20T19:58:09.793Z,99847.52
2018-01-20T20:00:37.351Z,99850.56
2018-01-20T20:03:04.878Z,99856.87
2018-01-20T20:05:32.431Z,99857.36
2018-01-20T20:07:59.982Z,99853.88
2018-01-20T20:10:27.550Z,99851.03
2018-01-20T20:12:55.070Z,99855.20
2018-01-20T20:15:22.719Z,99845.53
2018-01-20T20:17:50.252Z,99847.55
2018-01-20T20:20:17.781Z,99849.88
2018-01-20T20:22:45.710Z,99843.75
2018-01-20T20:25:13.230Z,99845.19
2018-01-20T20:27:40.900Z,99843.89
2018-01-20T20:30:08.424Z,99844.38
2018-01-20T20:32:35.970Z,99844.23
2018-01-20T20:35:03.509Z,99849.70
2018-01-20T20:37:31.017Z,99850.28
2018-01-20T20:39:58.544Z,99844.75
2018-01-20T20:42:26.096Z,99852.47
2018-01-20T20:44:53.631Z,99855.88
2018-01-20T20:47:21.283Z,99858.20
2018-01-20T20:49:49.081Z,99850.84
2018-01-20T20:52:16.619Z,99857.10
2018-01-20T20:54:44.190Z,99853.53
2018-01-20T20:57:11.716Z,99852.03
2018-01-20T20:59:39.239Z,99841.58
2018-01-20T21:02:06.772Z,99847.13
2018-01-20T21:04:34.735Z,99846.75
2018-01-20T21:07:02.261Z,99845.08
2018-01-20T21:09:30.039Z,99852.80
2018-01-20T21:11:57.549Z,99848.19
2018-01-20T21:14:25.136Z,99835.75
2018-01-20T21:16:52.657Z,99844.72
2018-01-20T21:19:20.799Z,99847.16
2018-01-20T21:21:49.852Z,99842.64
2018-01-20T21:24:17.417Z,99847.62
2018-01-20T21:26:44.949Z,99846.70
2018-01-20T21:29:12.558Z,99846.13
2018-01-20T21:31:42.498Z,99846.45
2018-01-20T21:34:12.074Z,99849.25
2018-01-20T21:36:39.769Z,99849.32
2018-01-20T21:39:07.413Z,99851.09
2018-01-20T21:41:34.973Z,99848.61
2018-01-20T21:44:02.493Z,99842.15
2018-01-20T21:46:29.989Z,99843.61
2018-01-20T21:48:57.630Z,99852.38
2018-01-20T21:51:25.161Z,99852.22
2018-01-20T21:53:52.697Z,99854.74
2018-01-20T21:56:20.242Z,99853.23
2018-01-20T21:58:47.865Z,99857.63
2018-01-20T22:01:15.402Z,99860.80
2018-01-20T22:03:42.952Z,99861.30
2018-01-20T22:06:10.554Z,99859.41
2018-01-20T22:08:38.102Z,99856.59
2018-01-20T22:11:05.665Z,99853.25
2018-01-20T22:13:33.324Z,99857.80
2018-01-20T22:16:00.846Z,99853.53
2018-01-20T22:18:28.572Z,99855.65
2018-01-20T22:20:56.086Z,99852.20
2018-01-20T22:23:23.602Z,99850.87
2018-01-20T22:25:51.150Z,99853.84
2018-01-20T22:28:18.801Z,99850.32
2018-01-20T22:30:46.328Z,99855.41
2018-01-20T22:33:13.917Z,99855.30
2018-01-20T22:35:41.442Z,99863.76
2018-01-20T22:38:10.912Z,99861.44
2018-01-20T22:40:40.280Z,99853.72
2018-01-20T22:43:09.468Z,99851.66
2018-01-20T22:45:38.886Z,99855.59
2018-01-20T22:48:06.968Z,99857.36
2018-01-20T22:50:34.596Z,99854.86
2018-01-20T22:53:02.125Z,99860.69
2018-01-20T22:55:29.636Z,99861.80
2018-01-20T22:57:57.167Z,99856.35
2018-01-20T23:00:24.749Z,99862.16
2018-01-20T23:02:52.265Z,99858.75
2018-01-20T23:05:19.781Z,99863.81
2018-01-20T23:07:47.331Z,99871.27
2018-01-20T23:10:14.859Z,99868.73
2018-01-20T23:12:42.425Z,99866.20
2018-01-20T23:15:10.087Z,99870.85
2018-01-20T23:17:37.626Z,99871.73
2018-01-20T23:20:05.421Z,99866.16
2018-01-20T23:22:32.944Z,99873.34
2018-01-20T23:25:00.450Z,99876.27
2018-01-20T23:27:28.210Z,99876.44
2018-01-20T23:29:55.736Z,99878.83
2018-01-20T23:32:23.346Z,99879.14
2018-01-20T23:34:50.891Z,99879.89
2018-01-20T23:37:18.432Z,99874.64
2018-01-20T23:39:45.959Z,99877.50
2018-01-20T23:42:13.482Z,99882.19
2018-01-20T23:44:40.996Z,99880.84
2018-01-20T23:47:08.564Z,99877.36
2018-01-20T23:49:36.090Z,99873.80
2018-01-20T23:52:03.633Z,99872.73
2018-01-20T23:54:31.335Z,99877.34
2018-01-20T23:56:58.858Z,99881.55
2018-01-20T23:59:26.372Z,99881.89
